createdAt,value
2018-11-10T00:00:16.757Z,29.87
2018-11-10T00:02:48.326Z,41.22
2018-11-10T00:05:19.087Z,39.40
2018-11-10T00:07:48.281Z,31.63
2018-11-10T00:10:17.373Z,29.07
2018-11-10T00:12:47.731Z,38.60
2018-11-10T00:15:18.155Z,31.87
2018-11-10T00:20:23.202Z,38.38
2018-11-10T00:22:52.311Z,41.83
2018-11-10T00:25:21.389Z,34.80
2018-11-10T00:27:50.730Z,28.10
2018-11-10T00:32:55.521Z,34.25
2018-11-10T00:35:24.615Z,26.67
2018-11-10T00:37:53.723Z,27.20
2018-11-10T00:42:58.603Z,31.35
2018-11-10T00:45:27.701Z,23.47
2018-11-10T00:47:56.748Z,28.15
2018-11-10T00:50:25.805Z,28.67
2018-11-10T00:55:30.629Z,24.95
2018-11-10T00:57:59.673Z,23.33
2018-11-10T01:00:28.720Z,26.60
2018-11-10T01:05:33.488Z,24.30
2018-11-10T01:08:02.517Z,20.10
2018-11-10T01:10:31.568Z,22.33
2018-11-10T01:15:36.390Z,21.75
2018-11-10T01:20:41.170Z,24.67
2018-11-10T01:25:45.918Z,26.92
2018-11-10T01:30:52.559Z,23.80
2018-11-10T01:33:21.612Z,25.37
2018-11-10T01:35:50.669Z,23.27
2018-11-10T01:38:19.756Z,23.65
2018-11-10T01:43:24.552Z,20.05
2018-11-10T01:48:29.556Z,22.35
2018-11-10T01:50:59.590Z,22.10
2018-11-10T01:53:28.630Z,19.20
2018-11-10T01:58:33.381Z,22.65
2018-11-10T02:01:03.346Z,21.63
2018-11-10T02:03:32.411Z,18.67
2018-11-10T02:06:05.438Z,19.90
2018-11-10T02:08:34.485Z,22.70
2018-11-10T02:13:39.230Z,22.62
2018-11-10T02:18:43.984Z,24.40
2018-11-10T02:26:24.489Z,23.83
2018-11-10T02:28:53.619Z,22.20
2018-11-10T02:31:22.694Z,23.38
2018-11-10T02:33:51.729Z,21.80
2018-11-10T02:36:20.786Z,20.20
2018-11-10T02:38:49.939Z,20.40
2018-11-10T02:41:19.125Z,18.03
2018-11-10T02:46:23.978Z,27.45
2018-11-10T02:48:53.021Z,18.53
2018-11-10T02:51:22.098Z,18.30
2018-11-10T02:53:51.133Z,16.63
2018-11-10T03:01:31.669Z,23.15
2018-11-10T03:06:36.519Z,22.25
2018-11-10T03:16:44.143Z,21.87
2018-11-10T03:19:13.205Z,18.77
2018-11-10T03:21:42.262Z,17.10
2018-11-10T03:24:11.301Z,15.90
2018-11-10T03:26:40.349Z,26.42
2018-11-10T03:29:09.397Z,24.37
2018-11-10T03:31:38.460Z,14.80
2018-11-10T03:34:07.503Z,17.30
2018-11-10T03:36:36.569Z,43.35
2018-11-10T03:39:06.587Z,19.70
2018-11-10T03:41:35.638Z,16.37
2018-11-10T03:44:05.641Z,15.55
2018-11-10T03:46:34.764Z,17.33
2018-11-10T03:51:39.546Z,18.25
2018-11-10T03:54:08.594Z,15.40
2018-11-10T03:56:37.653Z,26.08
2018-11-10T03:59:06.708Z,13.70
2018-11-10T04:01:35.757Z,16.03
2018-11-10T04:04:04.822Z,13.80
2018-11-10T04:06:33.933Z,14.97
2018-11-10T04:09:02.979Z,29.37
2018-11-10T04:11:32.025Z,16.90
2018-11-10T04:14:01.082Z,18.10
2018-11-10T04:16:30.224Z,23.07
2018-11-10T04:21:34.963Z,30.00
2018-11-10T04:26:39.719Z,48.70
2018-11-10T04:29:09.787Z,25.20
2018-11-10T04:31:38.832Z,16.70
2018-11-10T04:39:19.331Z,23.98
2018-11-10T04:44:29.802Z,29.05
2018-11-10T04:46:58.850Z,43.10
2018-11-10T04:49:28.121Z,16.37
2018-11-10T04:51:57.169Z,57.67
2018-11-10T04:54:26.244Z,47.37
2018-11-10T04:59:30.995Z,44.30
2018-11-10T05:02:01.036Z,31.13
2018-11-10T05:04:30.097Z,37.63
2018-11-10T05:06:59.151Z,21.97
2018-11-10T05:09:28.188Z,38.95
2018-11-10T05:11:57.269Z,35.00
2018-11-10T05:14:26.454Z,30.13
2018-11-10T05:16:55.479Z,21.67
2018-11-10T05:19:24.556Z,24.30
2018-11-10T05:21:54.557Z,31.73
2018-11-10T05:24:23.596Z,21.97
2018-11-10T05:29:28.330Z,37.95
2018-11-10T05:31:57.393Z,19.53
2018-11-10T05:34:26.444Z,29.17
2018-11-10T05:36:55.499Z,29.93
2018-11-10T05:39:24.541Z,20.00
2018-11-10T05:41:54.713Z,52.40
2018-11-10T05:44:23.752Z,38.40
2018-11-10T05:46:52.820Z,32.97
2018-11-10T05:49:21.919Z,20.23
2018-11-10T05:51:50.966Z,26.83
2018-11-10T05:54:20.012Z,27.53
2018-11-10T05:57:03.818Z,22.00
2018-11-10T05:59:42.241Z,25.47
2018-11-10T06:02:24.143Z,52.00
2018-11-10T06:05:07.341Z,52.10
2018-11-10T06:07:37.016Z,33.83
2018-11-10T06:10:06.222Z,41.60
2018-11-10T06:12:35.136Z,36.80
2018-11-10T06:17:39.878Z,44.72
2018-11-10T06:20:08.931Z,73.97
2018-11-10T06:22:38.200Z,46.50
2018-11-10T06:25:08.263Z,23.80
2018-11-10T06:27:37.371Z,25.80
2018-11-10T06:30:06.396Z,29.50
2018-11-10T06:32:35.498Z,29.77
2018-11-10T06:35:04.530Z,30.50
2018-11-10T06:37:33.576Z,34.73
2018-11-10T06:40:02.641Z,22.43
2018-11-10T06:45:07.809Z,38.45
2018-11-10T06:47:36.845Z,29.00
2018-11-10T06:52:41.646Z,57.45
2018-11-10T06:55:11.644Z,33.10
2018-11-10T06:57:40.923Z,34.45
2018-11-10T07:00:09.975Z,32.40
2018-11-10T07:02:39.025Z,23.67
2018-11-10T07:10:19.521Z,29.83
2018-11-10T07:15:24.306Z,31.98
2018-11-10T07:20:29.028Z,22.02
2018-11-10T07:22:58.085Z,24.00
2018-11-10T07:25:27.124Z,14.50
2018-11-10T07:27:56.185Z,14.87
2018-11-10T07:30:25.381Z,15.83
2018-11-10T07:32:54.450Z,15.70
2018-11-10T07:35:23.483Z,17.20
2018-11-10T07:37:53.370Z,14.00
2018-11-10T07:40:22.402Z,14.90
2018-11-10T07:42:51.448Z,15.70
2018-11-10T07:45:20.491Z,17.37
2018-11-10T07:47:49.544Z,19.10
2018-11-10T07:50:19.673Z,17.77
2018-11-10T07:52:48.707Z,19.95
2018-11-10T07:55:17.763Z,18.67
2018-11-10T07:57:48.761Z,15.00
2018-11-10T08:00:23.477Z,15.30
2018-11-10T08:02:52.569Z,12.90
2018-11-10T08:05:21.617Z,13.30
2018-11-10T08:10:26.417Z,14.10
2018-11-10T08:15:31.726Z,13.32
2018-11-10T08:20:36.482Z,13.00
2018-11-10T08:23:05.653Z,12.13
2018-11-10T08:25:34.754Z,10.50
2018-11-10T08:28:03.788Z,10.17
2018-11-10T08:30:32.938Z,10.80
2018-11-10T08:33:01.982Z,9.70
2018-11-10T08:35:32.969Z,9.97
2018-11-10T08:38:04.015Z,10.00
2018-11-10T08:40:34.970Z,8.93
2018-11-10T08:43:04.107Z,9.03
2018-11-10T08:48:08.875Z,10.40
2018-11-10T08:50:37.933Z,9.77
2018-11-10T08:53:07.018Z,11.55
2018-11-10T08:55:36.046Z,10.53
2018-11-10T08:58:05.110Z,9.60
2018-11-10T09:00:34.228Z,9.23
2018-11-10T09:03:03.264Z,10.23
2018-11-10T09:05:32.421Z,15.70
2018-11-10T09:08:01.617Z,11.73
2018-11-10T09:10:32.075Z,8.87
2018-11-10T09:13:02.486Z,8.80
2018-11-10T09:15:31.549Z,8.90
2018-11-10T09:18:00.601Z,8.47
2018-11-10T09:20:30.639Z,8.60
2018-11-10T09:22:59.702Z,9.48
2018-11-10T09:25:28.782Z,8.50
2018-11-10T09:27:59.026Z,8.90
2018-11-10T09:30:28.116Z,8.13
2018-11-10T09:32:57.183Z,8.77
2018-11-10T09:35:26.304Z,8.80
2018-11-10T09:37:55.410Z,8.90
2018-11-10T09:40:24.461Z,9.10
2018-11-10T09:42:53.597Z,8.33
2018-11-10T09:45:22.663Z,8.53
2018-11-10T09:47:51.763Z,9.17
2018-11-10T09:50:20.857Z,9.60
2018-11-10T09:52:50.135Z,9.33
2018-11-10T09:55:22.882Z,9.47
2018-11-10T09:57:53.656Z,9.00
2018-11-10T10:00:25.797Z,11.43
2018-11-10T10:02:54.979Z,10.97
2018-11-10T10:05:24.006Z,9.23
2018-11-10T10:07:53.155Z,11.17
2018-11-10T10:10:23.117Z,9.93
2018-11-10T10:12:52.574Z,9.63
2018-11-10T10:15:21.629Z,8.60
2018-11-10T10:17:50.726Z,9.87
2018-11-10T10:20:19.798Z,9.57
2018-11-10T10:22:49.126Z,9.95
2018-11-10T10:25:18.195Z,9.93
2018-11-10T10:27:47.301Z,11.10
2018-11-10T10:30:18.277Z,11.00
2018-11-10T10:32:47.429Z,10.82
2018-11-10T10:35:16.613Z,9.87
2018-11-10T10:37:46.075Z,10.23
2018-11-10T10:40:15.403Z,12.37
2018-11-10T10:45:20.728Z,9.38
2018-11-10T10:47:51.429Z,9.53
2018-11-10T10:50:20.534Z,10.53
2018-11-10T10:52:49.674Z,9.60
2018-11-10T10:55:19.629Z,10.47
2018-11-10T10:57:48.910Z,9.60
2018-11-10T11:00:18.417Z,8.60
2018-11-10T11:02:57.768Z,9.90
2018-11-10T11:05:26.949Z,10.33
2018-11-10T11:10:31.862Z,9.90
2018-11-10T11:13:01.034Z,9.57
2018-11-10T11:15:30.175Z,10.40
2018-11-10T11:17:59.165Z,13.53
2018-11-10T11:23:04.703Z,10.43
2018-11-10T11:25:33.773Z,10.93
2018-11-10T11:28:02.825Z,10.17
2018-11-10T11:30:31.898Z,10.03
2018-11-10T11:33:00.989Z,10.17
2018-11-10T11:35:30.089Z,10.17
2018-11-10T11:37:59.260Z,9.30
2018-11-10T11:40:28.304Z,9.85
2018-11-10T11:42:57.367Z,10.70
2018-11-10T11:45:26.516Z,10.43
2018-11-10T11:47:55.585Z,10.70
2018-11-10T11:50:24.825Z,10.87
2018-11-10T11:52:54.219Z,10.37
2018-11-10T11:55:32.323Z,11.70
2018-11-10T11:58:02.634Z,10.90
2018-11-10T12:00:32.796Z,11.20
2018-11-10T12:03:02.010Z,11.73
2018-11-10T12:05:31.173Z,12.02
2018-11-10T12:08:00.221Z,11.93
2018-11-10T12:10:30.263Z,12.83
2018-11-10T12:12:59.751Z,11.43
2018-11-10T12:15:29.090Z,12.17
2018-11-10T12:17:58.189Z,11.43
2018-11-10T12:23:04.099Z,12.13
2018-11-10T12:25:34.072Z,12.25
2018-11-10T12:28:03.142Z,11.60
2018-11-10T12:30:32.200Z,12.30
2018-11-10T12:33:01.464Z,9.70
2018-11-10T12:35:30.505Z,12.37
2018-11-10T12:37:59.583Z,12.60
2018-11-10T12:40:28.788Z,11.70
2018-11-10T12:42:57.860Z,12.70
2018-11-10T12:45:26.918Z,12.23
2018-11-10T12:47:55.974Z,11.57
2018-11-10T12:50:25.033Z,13.33
2018-11-10T12:52:54.099Z,12.97
2018-11-10T12:55:23.188Z,13.52
2018-11-10T12:57:52.321Z,12.93
2018-11-10T13:02:57.114Z,14.30
2018-11-10T13:05:26.219Z,13.30
2018-11-10T13:07:55.308Z,15.03
2018-11-10T13:10:24.345Z,13.87
2018-11-10T13:12:53.647Z,15.73
2018-11-10T13:17:58.556Z,15.60
2018-11-10T13:23:03.392Z,15.02
2018-11-10T13:25:32.465Z,15.90
2018-11-10T13:28:01.574Z,15.50
2018-11-10T13:30:30.655Z,16.37
2018-11-10T13:32:59.720Z,14.60
2018-11-10T13:35:30.969Z,14.25
2018-11-10T13:38:00.039Z,16.53
2018-11-10T13:40:30.114Z,15.47
2018-11-10T13:42:59.216Z,17.05
2018-11-10T13:45:28.239Z,15.43
2018-11-10T13:47:58.407Z,14.53
2018-11-10T13:50:27.929Z,15.83
2018-11-10T13:52:57.440Z,15.37
2018-11-10T13:55:26.023Z,16.40
2018-11-10T13:57:55.125Z,15.60
2018-11-10T14:00:24.211Z,16.97
2018-11-10T14:02:53.261Z,17.87
2018-11-10T14:07:58.117Z,17.00
2018-11-10T14:10:27.213Z,17.13
2018-11-10T14:12:56.225Z,18.40
2018-11-10T14:15:25.290Z,19.10
2018-11-10T14:17:56.322Z,18.12
2018-11-10T14:20:25.402Z,18.17
2018-11-10T14:22:56.380Z,17.53
2018-11-10T14:25:25.478Z,19.80
2018-11-10T14:30:31.177Z,20.20
2018-11-10T14:35:37.985Z,21.92
2018-11-10T14:38:07.098Z,18.67
2018-11-10T14:40:36.146Z,21.57
2018-11-10T14:43:05.235Z,20.77
2018-11-10T14:45:34.281Z,21.70
2018-11-10T14:48:03.434Z,19.00
2018-11-10T14:50:32.452Z,23.87
2018-11-10T14:53:01.681Z,23.80
2018-11-10T14:55:34.587Z,28.47
2018-11-10T14:58:03.638Z,31.13
2018-11-10T15:00:32.703Z,31.33
2018-11-10T15:03:01.762Z,34.53
2018-11-10T15:05:30.856Z,34.73
2018-11-10T15:07:59.909Z,32.00
2018-11-10T15:10:28.974Z,33.93
2018-11-10T15:12:58.013Z,37.47
2018-11-10T15:15:27.233Z,43.33
2018-11-10T15:17:56.409Z,37.97
2018-11-10T15:20:25.309Z,33.67
2018-11-10T15:22:54.408Z,36.00
2018-11-10T15:25:23.524Z,40.33
2018-11-10T15:27:52.524Z,37.47
2018-11-10T15:30:23.500Z,45.12
2018-11-10T15:32:54.528Z,38.40
2018-11-10T15:35:23.572Z,37.70
2018-11-10T15:37:52.620Z,44.40
2018-11-10T15:42:57.374Z,44.23
2018-11-10T15:45:26.437Z,44.33
2018-11-10T15:47:55.493Z,51.05
2018-11-10T15:50:24.582Z,50.10
2018-11-10T15:52:53.576Z,39.30
2018-11-10T15:55:23.528Z,49.33
2018-11-10T15:57:53.549Z,49.07
2018-11-10T16:00:22.598Z,43.20
2018-11-10T16:02:51.667Z,44.07
2018-11-10T16:05:20.705Z,45.67
2018-11-10T16:07:50.849Z,45.10
2018-11-10T16:10:20.019Z,53.35
2018-11-10T16:12:48.958Z,51.17
2018-11-10T16:15:18.073Z,52.87
2018-11-10T16:17:47.125Z,44.73
2018-11-10T16:20:16.217Z,60.95
2018-11-10T16:22:45.280Z,54.07
2018-11-10T16:25:14.335Z,55.13
2018-11-10T16:27:43.389Z,48.53
2018-11-10T16:30:12.479Z,46.93
2018-11-10T16:32:41.695Z,57.50
2018-11-10T16:35:10.768Z,61.17
2018-11-10T16:37:39.815Z,55.80
2018-11-10T16:40:08.943Z,48.93
2018-11-10T16:42:38.049Z,53.27
2018-11-10T16:45:07.091Z,61.87
2018-11-10T16:47:37.020Z,63.07
2018-11-10T16:50:06.126Z,60.97
2018-11-10T16:52:35.511Z,56.20
2018-11-10T16:55:04.602Z,80.17
2018-11-10T16:57:33.643Z,71.50
2018-11-10T17:02:38.393Z,71.12
2018-11-10T17:05:07.439Z,82.28
2018-11-10T17:07:36.487Z,64.40
2018-11-10T17:12:41.233Z,81.75
2018-11-10T17:17:46.010Z,77.40
2018-11-10T17:20:15.053Z,62.97
2018-11-10T17:22:44.190Z,58.50
2018-11-10T17:25:13.353Z,57.47
2018-11-10T17:27:42.692Z,55.67
2018-11-10T17:30:11.804Z,57.63
2018-11-10T17:32:40.931Z,80.72
2018-11-10T17:35:09.954Z,82.47
2018-11-10T17:37:39.059Z,69.47
2018-11-10T17:40:08.188Z,65.93
2018-11-10T17:42:37.209Z,65.10
2018-11-10T17:45:06.258Z,70.20
2018-11-10T17:47:35.293Z,66.77
2018-11-10T17:50:04.533Z,65.57
2018-11-10T17:52:33.602Z,62.60
2018-11-10T17:55:02.647Z,58.07
2018-11-10T17:57:31.748Z,67.03
2018-11-10T18:02:37.500Z,78.07
2018-11-10T18:07:42.310Z,72.60
2018-11-10T18:15:23.029Z,62.15
2018-11-10T18:17:52.133Z,62.83
2018-11-10T18:20:21.168Z,52.83
2018-11-10T18:22:50.216Z,50.00
2018-11-10T18:25:19.337Z,54.67
2018-11-10T18:27:48.366Z,50.47
2018-11-10T18:30:17.419Z,61.97
2018-11-10T18:35:22.186Z,62.95
2018-11-10T18:37:51.307Z,58.50
2018-11-10T18:40:20.364Z,48.70
2018-11-10T18:45:25.103Z,58.15
2018-11-10T18:47:54.235Z,61.70
2018-11-10T18:50:23.329Z,66.23
2018-11-10T18:52:52.443Z,63.40
2018-11-10T18:55:21.601Z,61.45
2018-11-10T18:57:50.637Z,59.78
2018-11-10T19:00:19.745Z,52.43
2018-11-10T19:08:02.255Z,62.95
2018-11-10T19:10:31.449Z,50.23
2018-11-10T19:13:00.555Z,44.17
2018-11-10T19:15:29.609Z,50.03
2018-11-10T19:17:58.745Z,46.07
2018-11-10T19:20:27.977Z,48.10
2018-11-10T19:22:57.084Z,45.57
2018-11-10T19:25:26.147Z,52.03
2018-11-10T19:27:55.202Z,46.10
2018-11-10T19:30:24.249Z,41.73
2018-11-10T19:32:53.293Z,43.63
2018-11-10T19:37:58.108Z,48.30
2018-11-10T19:43:02.858Z,44.42
2018-11-10T19:45:31.909Z,42.60
2018-11-10T19:48:01.131Z,52.37
2018-11-10T19:50:30.480Z,61.03
2018-11-10T19:52:59.568Z,70.30
2018-11-10T19:55:29.213Z,64.83
2018-11-10T19:57:58.290Z,106.30
2018-11-10T20:00:27.352Z,78.72
2018-11-10T20:02:56.448Z,139.17
2018-11-10T20:05:25.996Z,111.17
2018-11-10T20:07:55.126Z,97.13
2018-11-10T20:10:24.171Z,113.62
2018-11-10T20:12:53.253Z,201.50
2018-11-10T20:15:22.368Z,116.93
2018-11-10T20:17:51.487Z,87.70
2018-11-10T20:20:20.533Z,134.63
2018-11-10T20:22:49.581Z,123.33
2018-11-10T20:25:18.730Z,120.80
2018-11-10T20:27:47.777Z,107.77
2018-11-10T20:32:53.089Z,238.40
2018-11-10T20:35:22.179Z,191.23
2018-11-10T20:37:51.606Z,148.20
2018-11-10T20:40:20.753Z,159.33
2018-11-10T20:42:49.783Z,151.67
2018-11-10T20:47:54.649Z,302.60
2018-11-10T20:52:59.458Z,279.52
2018-11-10T20:55:28.516Z,330.63
2018-11-10T20:57:57.691Z,134.68
2018-11-10T21:00:26.974Z,164.17
2018-11-10T21:02:56.204Z,88.00
2018-11-10T21:05:25.488Z,223.43
2018-11-10T21:07:54.543Z,63.70
2018-11-10T21:10:23.588Z,127.03
2018-11-10T21:12:52.694Z,68.80
2018-11-10T21:15:21.720Z,188.02
2018-11-10T21:17:50.776Z,224.43
2018-11-10T21:20:19.873Z,179.25
2018-11-10T21:22:48.912Z,93.13
2018-11-10T21:25:18.738Z,115.70
2018-11-10T21:27:47.776Z,89.20
2018-11-10T21:30:16.971Z,110.73
2018-11-10T21:35:22.413Z,159.35
2018-11-10T21:37:51.404Z,198.13
2018-11-10T21:40:20.464Z,146.57
2018-11-10T21:45:26.301Z,198.80
2018-11-10T21:47:55.493Z,207.67
2018-11-10T21:50:24.694Z,103.83
2018-11-10T21:52:53.993Z,84.67
2018-11-10T21:55:23.288Z,82.73
2018-11-10T21:57:52.559Z,69.90
2018-11-10T22:00:21.643Z,86.87
2018-11-10T22:02:52.768Z,69.57
2018-11-10T22:05:21.828Z,55.70
2018-11-10T22:07:50.894Z,90.82
2018-11-10T22:10:22.741Z,91.50
2018-11-10T22:12:51.774Z,99.80
2018-11-10T22:15:20.829Z,89.95
2018-11-10T22:17:49.912Z,94.50
2018-11-10T22:20:19.485Z,93.63
2018-11-10T22:22:48.659Z,68.00
2018-11-10T22:25:17.645Z,87.47
2018-11-10T22:27:47.769Z,89.40
2018-11-10T22:30:16.904Z,129.40
2018-11-10T22:32:46.178Z,51.77
2018-11-10T22:35:15.305Z,67.93
2018-11-10T22:37:44.429Z,93.15
2018-11-10T22:40:16.740Z,53.13
2018-11-10T22:42:56.410Z,48.10
2018-11-10T22:45:37.112Z,117.78
2018-11-10T22:50:42.485Z,71.35
2018-11-10T22:53:11.541Z,71.77
2018-11-10T22:55:40.722Z,50.80
2018-11-10T22:58:09.825Z,43.37
2018-11-10T23:00:39.004Z,47.17
2018-11-10T23:03:08.049Z,49.03
2018-11-10T23:05:37.163Z,40.53
2018-11-10T23:08:06.270Z,49.23
2018-11-10T23:10:35.404Z,42.03
2018-11-10T23:13:04.540Z,44.93
2018-11-10T23:15:33.657Z,30.07
2018-11-10T23:18:02.787Z,35.63
2018-11-10T23:20:31.918Z,32.00
2018-11-10T23:23:01.026Z,24.73
2018-11-10T23:25:30.160Z,25.30
2018-11-10T23:27:59.201Z,40.92
2018-11-10T23:33:04.009Z,43.63
2018-11-10T23:35:33.045Z,34.13
2018-11-10T23:40:38.702Z,37.75
2018-11-10T23:43:07.967Z,46.17
2018-11-10T23:45:36.999Z,38.40
2018-11-10T23:48:08.057Z,33.33
2018-11-10T23:50:37.113Z,33.67
2018-11-10T23:53:06.191Z,34.73
2018-11-10T23:55:35.229Z,26.07
2018-11-10T23:58:06.276Z,31.43
